Time;durP1;ratioP1;P1;durP2;ratioP2;P2;SDS_P1;SDS_P2;PMS_P1;PMS_P2;Temp;Humidity;BMP_temperature;BMP_pressure;BME280_temperature;BME280_humidity;BME280_pressure;Samples;Min_cycle;Max_cycle;Signal;HPM_P1;HPM_P2
2022/07/10 00:00:01;;;;;;;4.87;1.93;;;;;;;;;;4931986;29;20491;-91
2022/07/10 00:02:27;;;;;;;1.00;1.00;;;;;;;;;;4948839;29;20434;-90
2022/07/10 00:04:53;;;;;;;1.67;1.50;;;;;;;;;;4951939;29;20470;-90
2022/07/10 00:07:19;;;;;;;1.40;1.37;;;;;;;;;;4959884;28;20446;-89
2022/07/10 00:09:45;;;;;;;1.73;1.20;;;;;;;;;;4944202;29;20984;-91
2022/07/10 00:12:11;;;;;;;2.00;1.90;;;;;;;;;;4946800;29;20442;-90
2022/07/10 00:14:37;;;;;;;1.40;1.30;;;;;;;;;;4951860;29;20462;-89
2022/07/10 00:17:03;;;;;;;2.77;1.67;;;;;;;;;;4968122;28;20430;-90
2022/07/10 00:19:29;;;;;;;3.07;1.97;;;;;;;;;;4962517;28;20443;-91
2022/07/10 00:21:56;;;;;;;1.83;1.50;;;;;;;;;;4945103;29;20430;-89
2022/07/10 00:24:22;;;;;;;2.97;1.20;;;;;;;;;;4960341;28;20474;-90
2022/07/10 00:26:48;;;;;;;2.90;1.53;;;;;;;;;;4934143;29;20981;-89
2022/07/10 00:29:14;;;;;;;2.40;1.70;;;;;;;;;;4942233;29;20420;-90
2022/07/10 00:31:40;;;;;;;1.60;1.53;;;;;;;;;;4952250;28;20450;-91
2022/07/10 00:34:06;;;;;;;1.47;1.40;;;;;;;;;;4959427;28;20482;-91
2022/07/10 00:36:32;;;;;;;1.70;1.60;;;;;;;;;;4946072;28;20538;-90
2022/07/10 00:38:58;;;;;;;1.27;1.10;;;;;;;;;;4937722;29;20450;-91
2022/07/10 00:41:24;;;;;;;2.77;1.50;;;;;;;;;;4959955;29;20435;-94
2022/07/10 00:43:57;;;;;;;3.70;2.27;;;;;;;;;;4972276;29;20462;-92
2022/07/10 00:46:24;;;;;;;2.10;1.47;;;;;;;;;;4994813;28;20521;-92
2022/07/10 00:48:50;;;;;;;1.53;1.43;;;;;;;;;;4980586;29;20442;-93
2022/07/10 00:51:17;;;;;;;1.77;1.57;;;;;;;;;;4980161;28;20457;-91
2022/07/10 00:53:45;;;;;;;4.20;1.13;;;;;;;;;;4978327;28;20450;-94
2022/07/10 00:56:14;;;;;;;3.40;1.50;;;;;;;;;;4994751;28;20434;-93
2022/07/10 00:58:41;;;;;;;2.10;1.10;;;;;;;;;;4978727;28;20426;-93
2022/07/10 01:01:07;;;;;;;1.47;1.37;;;;;;;;;;4980096;28;20426;-93
2022/07/10 01:03:33;;;;;;;1.63;1.10;;;;;;;;;;4979907;28;20461;-94
2022/07/10 01:05:59;;;;;;;3.53;1.50;;;;;;;;;;4978326;28;20434;-93
2022/07/10 01:08:25;;;;;;;3.40;1.50;;;;;;;;;;4993483;28;20478;-93
2022/07/10 01:10:51;;;;;;;2.40;1.27;;;;;;;;;;4978907;29;20441;-91
2022/07/10 01:13:18;;;;;;;3.90;1.37;;;;;;;;;;4978346;28;20428;-92
2022/07/10 01:15:44;;;;;;;1.43;1.33;;;;;;;;;;4979512;28;20445;-95
2022/07/10 01:18:10;;;;;;;1.60;1.60;;;;;;;;;;4978704;29;20464;-92
2022/07/10 01:20:36;;;;;;;1.20;1.20;;;;;;;;;;4979841;28;20449;-94
2022/07/10 01:23:04;;;;;;;2.50;1.43;;;;;;;;;;4979214;28;20448;-93
2022/07/10 01:25:30;;;;;;;3.30;2.53;;;;;;;;;;4978278;29;20458;-92
2022/07/10 01:27:59;;;;;;;1.37;1.17;;;;;;;;;;4979181;28;20437;-92
2022/07/10 01:30:25;;;;;;;1.60;1.50;;;;;;;;;;4979232;29;20445;-94
2022/07/10 01:32:54;;;;;;;2.37;1.27;;;;;;;;;;4977848;28;20441;-91
2022/07/10 01:35:20;;;;;;;2.23;1.70;;;;;;;;;;4972824;28;20394;-91
2022/07/10 01:37:46;;;;;;;4.10;2.83;;;;;;;;;;4955184;29;20868;-90
2022/07/10 01:40:13;;;;;;;1.93;1.77;;;;;;;;;;4972421;28;20506;-89
2022/07/10 01:42:39;;;;;;;1.23;1.13;;;;;;;;;;4973716;28;20413;-88
2022/07/10 01:45:06;;;;;;;3.33;1.30;;;;;;;;;;4972893;28;20476;-88
2022/07/10 01:47:32;;;;;;;1.23;1.13;;;;;;;;;;4972125;28;20425;-91
2022/07/10 01:49:58;;;;;;;1.70;1.67;;;;;;;;;;4975521;28;20428;-89
2022/07/10 01:52:24;;;;;;;1.10;1.10;;;;;;;;;;4959119;28;20952;-88
2022/07/10 01:54:50;;;;;;;2.20;1.07;;;;;;;;;;4948189;28;20482;-89
2022/07/10 01:57:16;;;;;;;1.30;1.30;;;;;;;;;;4951568;28;20447;-89
2022/07/10 01:59:42;;;;;;;1.40;1.30;;;;;;;;;;4968936;28;21238;-89
2022/07/10 02:02:09;;;;;;;4.13;1.30;;;;;;;;;;4975270;28;20446;-89
2022/07/10 02:04:40;;;;;;;5.40;1.47;;;;;;;;;;4962626;28;20968;-90
2022/07/10 02:07:07;;;;;;;4.97;1.40;;;;;;;;;;4950530;29;20505;-89
2022/07/10 02:09:36;;;;;;;4.63;1.50;;;;;;;;;;4960306;28;20517;-88
2022/07/10 02:12:02;;;;;;;2.60;1.30;;;;;;;;;;4954089;28;20471;-89
2022/07/10 02:14:29;;;;;;;2.53;1.73;;;;;;;;;;4971111;28;20485;-89
2022/07/10 02:16:55;;;;;;;3.53;1.20;;;;;;;;;;4962384;28;20968;-89
2022/07/10 02:19:21;;;;;;;4.60;1.13;;;;;;;;;;4955838;28;20446;-89
2022/07/10 02:21:47;;;;;;;2.30;2.00;;;;;;;;;;4957000;28;20517;-88
2022/07/10 02:24:13;;;;;;;6.40;1.80;;;;;;;;;;4958648;28;20557;-88
2022/07/10 02:26:39;;;;;;;3.80;1.37;;;;;;;;;;4952804;28;20426;-87
2022/07/10 02:29:05;;;;;;;4.90;1.57;;;;;;;;;;4952596;28;20441;-89
2022/07/10 02:31:34;;;;;;;5.33;1.50;;;;;;;;;;4955369;28;20450;-89
2022/07/10 02:34:00;;;;;;;1.63;1.17;;;;;;;;;;4949771;28;20475;-88
2022/07/10 02:36:26;;;;;;;2.63;1.40;;;;;;;;;;4954147;28;20430;-91
2022/07/10 02:38:52;;;;;;;3.10;1.53;;;;;;;;;;4970609;28;20450;-88
2022/07/10 02:41:18;;;;;;;3.33;1.63;;;;;;;;;;4961318;28;21016;-92
2022/07/10 02:43:44;;;;;;;1.07;1.07;;;;;;;;;;4963373;28;21050;-89
2022/07/10 02:46:10;;;;;;;2.20;1.70;;;;;;;;;;4953425;28;20454;-91
2022/07/10 02:48:36;;;;;;;2.00;1.70;;;;;;;;;;4961437;28;20823;-91
2022/07/10 02:51:02;;;;;;;2.47;1.83;;;;;;;;;;4959589;28;20437;-90
2022/07/10 02:53:28;;;;;;;3.80;1.30;;;;;;;;;;4954807;28;20446;-90
2022/07/10 02:55:54;;;;;;;1.70;1.60;;;;;;;;;;4955624;28;20429;-90
2022/07/10 02:58:20;;;;;;;3.13;1.60;;;;;;;;;;4960603;28;20457;-90
2022/07/10 03:00:46;;;;;;;2.33;1.50;;;;;;;;;;4967094;28;20518;-90
2022/07/10 03:03:12;;;;;;;1.57;1.43;;;;;;;;;;4956161;28;20466;-90
2022/07/10 03:05:38;;;;;;;1.93;1.40;;;;;;;;;;4955033;28;21016;-90
2022/07/10 03:08:04;;;;;;;5.30;1.60;;;;;;;;;;4947955;29;20422;-90
2022/07/10 03:10:30;;;;;;;5.80;1.80;;;;;;;;;;4974617;28;20979;-90
2022/07/10 03:12:56;;;;;;;3.07;1.67;;;;;;;;;;4958259;28;20469;-90
2022/07/10 03:15:22;;;;;;;3.27;1.47;;;;;;;;;;4951861;28;20438;-89
2022/07/10 03:17:48;;;;;;;1.60;1.40;;;;;;;;;;4960548;28;20762;-89
2022/07/10 03:20:14;;;;;;;4.13;1.70;;;;;;;;;;4956489;28;20526;-90
2022/07/10 03:22:40;;;;;;;2.90;1.40;;;;;;;;;;4956872;28;20422;-89
2022/07/10 03:25:06;;;;;;;3.47;1.47;;;;;;;;;;4965733;28;20469;-90
2022/07/10 03:27:32;;;;;;;2.37;1.20;;;;;;;;;;4951547;28;20474;-91
2022/07/10 03:29:58;;;;;;;2.00;1.80;;;;;;;;;;4971884;28;20455;-88
2022/07/10 03:32:24;;;;;;;3.83;1.37;;;;;;;;;;4953099;28;20442;-88
2022/07/10 03:34:50;;;;;;;4.73;1.60;;;;;;;;;;4952694;28;20433;-88
2022/07/10 03:37:16;;;;;;;4.17;1.50;;;;;;;;;;4959448;28;20445;-88
2022/07/10 03:39:42;;;;;;;2.43;1.73;;;;;;;;;;4977323;28;20429;-90
2022/07/10 03:42:08;;;;;;;4.67;1.73;;;;;;;;;;4955299;28;20446;-89
2022/07/10 03:44:34;;;;;;;2.07;1.87;;;;;;;;;;4952797;28;21150;-89
2022/07/10 03:47:00;;;;;;;2.53;1.60;;;;;;;;;;4951449;28;21077;-90
2022/07/10 03:49:26;;;;;;;2.83;1.27;;;;;;;;;;4949044;28;20435;-90
2022/07/10 03:51:52;;;;;;;3.80;1.40;;;;;;;;;;4967982;28;20416;-90
2022/07/10 03:54:18;;;;;;;1.80;1.70;;;;;;;;;;4951569;28;20470;-89
2022/07/10 03:59:29;;;;;;;1.53;1.40;;;;;;;;;;4952007;29;20477;-90
2022/07/10 04:01:55;;;;;;;1.90;1.40;;;;;;;;;;4961635;28;20446;-89
2022/07/10 04:04:21;;;;;;;2.07;1.97;;;;;;;;;;4977262;28;20472;-89
2022/07/10 04:06:47;;;;;;;3.23;2.07;;;;;;;;;;4968453;28;20470;-89
2022/07/10 04:09:13;;;;;;;1.43;1.33;;;;;;;;;;4961945;28;20488;-89
2022/07/10 04:11:39;;;;;;;4.27;1.27;;;;;;;;;;4952515;28;20968;-89
2022/07/10 04:14:05;;;;;;;2.73;1.40;;;;;;;;;;4970537;28;20460;-89
2022/07/10 04:16:31;;;;;;;3.20;1.53;;;;;;;;;;4952265;28;20544;-90
2022/07/10 04:18:57;;;;;;;2.80;2.60;;;;;;;;;;4957293;28;20419;-88
2022/07/10 04:21:23;;;;;;;4.77;1.70;;;;;;;;;;4970107;28;20440;-89
2022/07/10 04:23:49;;;;;;;7.13;2.70;;;;;;;;;;4964927;28;20469;-89
2022/07/10 04:26:15;;;;;;;6.00;2.27;;;;;;;;;;4965272;28;20433;-89
2022/07/10 04:28:41;;;;;;;5.80;2.20;;;;;;;;;;4957483;28;20406;-89
2022/07/10 04:31:07;;;;;;;1.40;1.40;;;;;;;;;;4959897;28;20472;-89
2022/07/10 04:33:34;;;;;;;3.67;1.73;;;;;;;;;;4958107;28;20982;-90
2022/07/10 04:36:00;;;;;;;1.53;1.40;;;;;;;;;;4959085;28;20530;-89
2022/07/10 04:38:26;;;;;;;1.80;1.70;;;;;;;;;;4949610;28;20525;-89
2022/07/10 04:40:52;;;;;;;2.00;1.47;;;;;;;;;;4960676;28;20410;-89
2022/07/10 04:43:18;;;;;;;5.47;2.00;;;;;;;;;;4967385;28;20432;-89
2022/07/10 04:45:45;;;;;;;4.20;3.00;;;;;;;;;;4947507;28;20498;-90
2022/07/10 04:48:11;;;;;;;2.20;2.00;;;;;;;;;;4948615;28;20450;-90
2022/07/10 04:50:37;;;;;;;3.20;1.60;;;;;;;;;;4947416;28;20813;-91
2022/07/10 04:53:04;;;;;;;3.80;1.63;;;;;;;;;;4965634;28;20450;-90
2022/07/10 04:55:30;;;;;;;2.27;2.07;;;;;;;;;;4953439;28;20561;-91
2022/07/10 04:57:55;;;;;;;2.10;1.57;;;;;;;;;;4963125;28;20607;-90
2022/07/10 05:00:21;;;;;;;2.00;1.30;;;;;;;;;;4952032;28;20442;-91
2022/07/10 05:02:47;;;;;;;2.57;2.10;;;;;;;;;;4970565;28;20451;-91
2022/07/10 05:05:13;;;;;;;2.33;1.90;;;;;;;;;;4960205;28;20559;-90
2022/07/10 05:07:39;;;;;;;2.63;1.63;;;;;;;;;;4962651;28;20936;-91
2022/07/10 05:10:06;;;;;;;2.03;1.90;;;;;;;;;;4954634;28;20430;-90
2022/07/10 05:12:32;;;;;;;1.90;1.80;;;;;;;;;;4973004;28;20429;-90
2022/07/10 05:14:59;;;;;;;9.47;1.63;;;;;;;;;;4960828;28;20456;-90
2022/07/10 05:17:26;;;;;;;1.97;1.80;;;;;;;;;;4961172;28;20445;-90
2022/07/10 05:19:53;;;;;;;5.10;2.00;;;;;;;;;;4957667;28;20438;-90
2022/07/10 05:22:20;;;;;;;4.13;1.40;;;;;;;;;;4975232;28;20433;-90
2022/07/10 05:32:33;;;;;;;2.10;1.47;;;;;;;;;;5847638;22;20456;-88
2022/07/10 05:34:59;;;;;;;3.60;2.27;;;;;;;;;;4956354;28;20433;-88
2022/07/10 05:37:26;;;;;;;3.43;2.23;;;;;;;;;;4985125;28;20805;-88
2022/07/10 05:39:52;;;;;;;2.93;2.73;;;;;;;;;;4967536;28;20469;-89
2022/07/10 05:42:18;;;;;;;1.60;1.60;;;;;;;;;;4978264;28;20444;-89
2022/07/10 05:44:44;;;;;;;5.33;2.60;;;;;;;;;;4970477;28;20465;-88
2022/07/10 05:47:10;;;;;;;1.60;1.60;;;;;;;;;;4961123;28;21065;-89
2022/07/10 05:49:36;;;;;;;2.93;1.87;;;;;;;;;;4958152;28;20453;-89
2022/07/10 05:52:02;;;;;;;1.93;1.70;;;;;;;;;;4972202;28;20532;-89
2022/07/10 05:54:28;;;;;;;1.43;1.30;;;;;;;;;;4973645;28;20442;-89
2022/07/10 05:56:54;;;;;;;3.43;1.93;;;;;;;;;;4963275;28;20441;-89
2022/07/10 05:59:20;;;;;;;3.90;1.93;;;;;;;;;;4964490;28;20505;-89
2022/07/10 06:01:46;;;;;;;7.00;1.50;;;;;;;;;;4958964;28;20421;-89
2022/07/10 06:04:12;;;;;;;5.13;1.70;;;;;;;;;;4982281;28;20474;-89
2022/07/10 06:06:38;;;;;;;3.03;1.50;;;;;;;;;;4987337;28;20401;-89
2022/07/10 06:09:04;;;;;;;3.40;1.70;;;;;;;;;;4977448;28;20431;-90
2022/07/10 06:11:30;;;;;;;3.40;1.47;;;;;;;;;;4974103;28;20421;-90
2022/07/10 06:13:56;;;;;;;1.20;1.20;;;;;;;;;;4965924;28;20426;-90
2022/07/10 06:16:23;;;;;;;1.70;1.60;;;;;;;;;;4962351;28;20457;-90
2022/07/10 06:18:49;;;;;;;2.67;1.53;;;;;;;;;;4945339;28;20842;-89
2022/07/10 06:21:14;;;;;;;2.10;2.00;;;;;;;;;;4951556;28;20456;-89
2022/07/10 06:23:40;;;;;;;6.40;1.90;;;;;;;;;;4267930;28;10000678;-89
2022/07/10 06:26:06;;;;;;;4.60;1.70;;;;;;;;;;4974598;28;20197;-89
2022/07/10 06:28:34;;;;;;;2.93;2.03;;;;;;;;;;4943221;28;21214;-89
2022/07/10 06:31:00;;;;;;;2.10;1.50;;;;;;;;;;4961819;28;20441;-91
2022/07/10 06:33:26;;;;;;;2.83;1.40;;;;;;;;;;4953996;28;20469;-89
2022/07/10 06:35:52;;;;;;;1.70;1.60;;;;;;;;;;4967679;28;20441;-88
2022/07/10 06:38:18;;;;;;;1.80;1.70;;;;;;;;;;4957127;28;20522;-90
2022/07/10 06:40:46;;;;;;;3.07;1.17;;;;;;;;;;4955861;28;20468;-89
2022/07/10 06:43:17;;;;;;;2.53;1.63;;;;;;;;;;4956241;28;20958;-90
2022/07/10 06:45:46;;;;;;;3.30;1.70;;;;;;;;;;4979899;28;20493;-89
2022/07/10 06:48:12;;;;;;;1.70;1.60;;;;;;;;;;4958647;28;20544;-88
2022/07/10 06:50:38;;;;;;;3.83;1.97;;;;;;;;;;4954056;28;20476;-88
2022/07/10 06:53:04;;;;;;;3.93;1.20;;;;;;;;;;4972817;28;20442;-90
2022/07/10 06:55:30;;;;;;;3.47;1.10;;;;;;;;;;4967275;28;20471;-88
2022/07/10 06:57:56;;;;;;;2.70;1.27;;;;;;;;;;4958277;28;20444;-88
2022/07/10 07:00:22;;;;;;;2.73;1.80;;;;;;;;;;4950385;28;20498;-88
2022/07/10 07:02:48;;;;;;;2.00;1.60;;;;;;;;;;4951987;28;20449;-87
2022/07/10 07:05:15;;;;;;;4.00;1.67;;;;;;;;;;4951835;28;20488;-88
2022/07/10 07:07:43;;;;;;;3.60;1.73;;;;;;;;;;4973670;28;20575;-88
2022/07/10 07:10:09;;;;;;;3.60;1.00;;;;;;;;;;4962852;28;20429;-87
2022/07/10 07:12:35;;;;;;;4.37;2.30;;;;;;;;;;4956627;28;20444;-87
2022/07/10 07:15:02;;;;;;;3.07;1.30;;;;;;;;;;4963917;28;20448;-88
2022/07/10 07:17:34;;;;;;;6.37;2.00;;;;;;;;;;4951191;28;20794;-88
2022/07/10 07:25:32;;;;;;;1.83;1.73;;;;;;;;;;4967875;28;20507;-88
2022/07/10 07:27:58;;;;;;;2.83;1.93;;;;;;;;;;4955755;28;20457;-88
2022/07/10 07:30:24;;;;;;;2.93;1.60;;;;;;;;;;4951326;28;21227;-87
2022/07/10 07:32:50;;;;;;;3.33;1.57;;;;;;;;;;4957130;28;20461;-89
2022/07/10 07:35:17;;;;;;;3.13;1.97;;;;;;;;;;4956408;28;20449;-88
2022/07/10 07:37:45;;;;;;;3.40;1.87;;;;;;;;;;4970038;28;20461;-89
2022/07/10 07:40:15;;;;;;;9.77;1.90;;;;;;;;;;4956260;28;20456;-88
2022/07/10 07:42:41;;;;;;;1.50;1.40;;;;;;;;;;4955363;28;20477;-89
2022/07/10 07:45:08;;;;;;;2.30;1.90;;;;;;;;;;4972638;28;21022;-89
2022/07/10 07:47:44;;;;;;;1.97;1.70;;;;;;;;;;4973869;28;21091;-88
2022/07/10 07:50:10;;;;;;;7.47;1.50;;;;;;;;;;4974141;28;20463;-89
2022/07/10 07:52:36;;;;;;;3.60;1.50;;;;;;;;;;4954034;28;20461;-88
2022/07/10 07:55:03;;;;;;;8.53;2.30;;;;;;;;;;4953433;28;20460;-90
2022/07/10 07:57:29;;;;;;;4.93;1.90;;;;;;;;;;4967521;28;20436;-89
2022/07/10 07:59:55;;;;;;;3.10;1.77;;;;;;;;;;4967301;28;20434;-89
2022/07/10 08:02:21;;;;;;;3.13;1.80;;;;;;;;;;4939446;28;21007;-88
2022/07/10 08:04:47;;;;;;;3.93;1.40;;;;;;;;;;4971722;28;20987;-87
2022/07/10 08:07:14;;;;;;;1.77;1.57;;;;;;;;;;4963999;28;20421;-87
2022/07/10 08:09:40;;;;;;;2.03;1.47;;;;;;;;;;4967241;28;20483;-89
2022/07/10 08:12:06;;;;;;;2.57;1.80;;;;;;;;;;4959986;28;20441;-86
2022/07/10 08:14:31;;;;;;;1.80;1.70;;;;;;;;;;4953858;28;20504;-88
2022/07/10 08:16:58;;;;;;;6.53;2.37;;;;;;;;;;4950579;28;20441;-88
2022/07/10 08:19:24;;;;;;;5.37;2.00;;;;;;;;;;4957981;28;20476;-89
2022/07/10 08:21:50;;;;;;;5.23;2.77;;;;;;;;;;4971337;28;20874;-88
2022/07/10 08:24:16;;;;;;;2.53;2.33;;;;;;;;;;4947831;28;20464;-89
2022/07/10 08:26:42;;;;;;;2.90;2.70;;;;;;;;;;4956383;28;20751;-85
2022/07/10 08:29:08;;;;;;;6.37;2.93;;;;;;;;;;4954255;28;20438;-88
2022/07/10 08:31:37;;;;;;;3.37;3.10;;;;;;;;;;4967505;28;20441;-89
2022/07/10 08:34:03;;;;;;;2.60;2.50;;;;;;;;;;4951556;28;20916;-88
2022/07/10 08:36:29;;;;;;;2.40;2.23;;;;;;;;;;4951602;28;20469;-89
2022/07/10 08:38:58;;;;;;;3.17;3.00;;;;;;;;;;4957617;28;21027;-88
2022/07/10 08:41:27;;;;;;;3.50;3.30;;;;;;;;;;4950371;28;20456;-88
2022/07/10 08:43:54;;;;;;;3.97;3.57;;;;;;;;;;4951387;28;20466;-89
2022/07/10 08:46:20;;;;;;;3.90;2.97;;;;;;;;;;4952535;29;20536;-89
2022/07/10 08:48:49;;;;;;;2.70;2.53;;;;;;;;;;4953741;28;20497;-88
2022/07/10 08:51:30;;;;;;;6.13;2.23;;;;;;;;;;4951503;28;20430;-88
2022/07/10 08:53:58;;;;;;;2.60;2.40;;;;;;;;;;4950285;28;20461;-88
2022/07/10 08:56:24;;;;;;;5.50;2.30;;;;;;;;;;4952717;28;20430;-87
2022/07/10 08:58:52;;;;;;;2.43;2.33;;;;;;;;;;4956282;28;20430;-87
2022/07/10 09:01:22;;;;;;;1.60;1.60;;;;;;;;;;4954899;28;20481;-88
2022/07/10 09:03:49;;;;;;;1.50;1.40;;;;;;;;;;4949915;28;20433;-86
2022/07/10 09:06:15;;;;;;;1.60;1.53;;;;;;;;;;4945761;29;20423;-88
2022/07/10 09:08:57;;;;;;;1.70;1.60;;;;;;;;;;4953910;28;20470;-89
2022/07/10 09:11:25;;;;;;;2.00;2.00;;;;;;;;;;4949709;28;20422;-88
2022/07/10 09:13:55;;;;;;;2.13;2.00;;;;;;;;;;4952468;28;20438;-88
2022/07/10 09:16:25;;;;;;;2.00;1.90;;;;;;;;;;4953061;28;20639;-89
2022/07/10 09:18:51;;;;;;;1.63;1.63;;;;;;;;;;4953267;28;20506;-89
2022/07/10 09:21:18;;;;;;;2.70;2.60;;;;;;;;;;4952560;29;20944;-87
2022/07/10 09:23:44;;;;;;;7.90;7.00;;;;;;;;;;4946911;28;20430;-88
2022/07/10 09:26:09;;;;;;;5.50;5.30;;;;;;;;;;4951292;28;20437;-88
2022/07/10 09:28:36;;;;;;;8.77;7.90;;;;;;;;;;4955412;28;20419;-87
2022/07/10 09:31:01;;;;;;;9.23;8.43;;;;;;;;;;4960592;28;20437;-89
2022/07/10 09:33:31;;;;;;;8.70;8.10;;;;;;;;;;4973508;28;20433;-88
2022/07/10 09:36:14;;;;;;;8.83;8.17;;;;;;;;;;4976841;28;20449;-88
2022/07/10 09:38:40;;;;;;;9.43;8.73;;;;;;;;;;4941858;28;20454;-87
2022/07/10 09:41:17;;;;;;;8.60;8.03;;;;;;;;;;4963537;28;20426;-87
2022/07/10 09:43:44;;;;;;;8.00;7.60;;;;;;;;;;4947329;28;20793;-87
2022/07/10 09:46:10;;;;;;;8.20;7.70;;;;;;;;;;4958827;28;20560;-86
2022/07/10 09:48:36;;;;;;;7.77;7.27;;;;;;;;;;4962714;28;20434;-87
2022/07/10 09:51:03;;;;;;;6.73;6.30;;;;;;;;;;4953836;28;21231;-87
2022/07/10 09:53:29;;;;;;;6.60;6.10;;;;;;;;;;4965139;28;20450;-86
2022/07/10 09:55:57;;;;;;;8.13;5.57;;;;;;;;;;4953401;28;20430;-89
2022/07/10 09:58:28;;;;;;;5.40;4.97;;;;;;;;;;4961442;28;20434;-89
2022/07/10 10:00:55;;;;;;;4.97;4.67;;;;;;;;;;4954540;29;20448;-88
2022/07/10 10:03:21;;;;;;;5.10;4.90;;;;;;;;;;4974435;28;20859;-87
2022/07/10 10:05:54;;;;;;;5.20;4.73;;;;;;;;;;4955758;28;20477;-88
2022/07/10 10:08:23;;;;;;;4.80;4.60;;;;;;;;;;4963038;28;20446;-89
2022/07/10 10:10:51;;;;;;;6.07;5.77;;;;;;;;;;4950123;28;20450;-88
2022/07/10 10:13:18;;;;;;;7.30;6.80;;;;;;;;;;4961335;28;20663;-88
2022/07/10 10:15:44;;;;;;;9.33;8.43;;;;;;;;;;4945487;28;20467;-88
2022/07/10 10:18:11;;;;;;;9.53;8.70;;;;;;;;;;4958726;28;20437;-88
2022/07/10 10:20:43;;;;;;;10.37;9.57;;;;;;;;;;4959964;28;20465;-88
2022/07/10 10:23:14;;;;;;;10.43;9.73;;;;;;;;;;4948515;28;21077;-90
2022/07/10 10:25:41;;;;;;;10.37;9.33;;;;;;;;;;4947724;28;20482;-88
2022/07/10 10:28:11;;;;;;;9.50;8.77;;;;;;;;;;4973005;28;20554;-86
2022/07/10 10:30:39;;;;;;;10.00;9.33;;;;;;;;;;4948793;29;20485;-88
2022/07/10 10:33:25;;;;;;;10.23;9.47;;;;;;;;;;4969032;28;20468;-88
2022/07/10 10:35:55;;;;;;;10.70;9.70;;;;;;;;;;4958358;28;20449;-87
2022/07/10 10:38:24;;;;;;;6.30;6.00;;;;;;;;;;4967170;28;20550;-88
2022/07/10 10:40:52;;;;;;;7.07;6.77;;;;;;;;;;4959033;28;20443;-88
2022/07/10 10:43:19;;;;;;;6.50;6.30;;;;;;;;;;4976716;28;20432;-87
2022/07/10 10:45:50;;;;;;;5.53;5.17;;;;;;;;;;4960980;28;20482;-88
2022/07/10 10:48:23;;;;;;;5.00;4.70;;;;;;;;;;4262492;28;10000640;-87
2022/07/10 10:50:53;;;;;;;4.70;4.50;;;;;;;;;;4958429;29;20183;-88
2022/07/10 10:53:26;;;;;;;4.70;4.40;;;;;;;;;;4957304;28;20463;-89
2022/07/10 10:56:11;;;;;;;4.43;4.33;;;;;;;;;;4964051;28;20942;-86
2022/07/10 10:58:43;;;;;;;4.50;4.20;;;;;;;;;;4968647;28;20423;-89
2022/07/10 11:01:22;;;;;;;4.50;4.30;;;;;;;;;;4939386;28;20927;-88
2022/07/10 11:04:07;;;;;;;4.80;4.50;;;;;;;;;;4963133;28;21209;-92
2022/07/10 11:09:34;;;;;;;6.10;5.80;;;;;;;;;;4940141;29;20426;-87
2022/07/10 11:20:05;;;;;;;5.17;4.80;;;;;;;;;;5226245;23;20562;-90
2022/07/10 11:22:47;;;;;;;5.90;5.73;;;;;;;;;;4969251;28;20444;-87
2022/07/10 11:25:38;;;;;;;5.70;5.57;;;;;;;;;;4987779;28;20457;-90
2022/07/10 11:28:11;;;;;;;5.23;5.13;;;;;;;;;;5023446;28;20445;-92
2022/07/10 11:30:46;;;;;;;47.53;34.77;;;;;;;;;;4989679;28;20745;-90
2022/07/10 11:33:16;;;;;;;8.27;7.90;;;;;;;;;;4995916;28;20483;-89
2022/07/10 11:35:52;;;;;;;5.90;5.70;;;;;;;;;;4985472;28;20421;-90
2022/07/10 11:38:25;;;;;;;7.77;7.27;;;;;;;;;;4974561;29;20462;-87
2022/07/10 11:41:00;;;;;;;6.93;6.30;;;;;;;;;;5002878;28;20504;-91
2022/07/10 11:43:26;;;;;;;7.30;6.80;;;;;;;;;;4992601;28;20424;-89
2022/07/10 11:46:02;;;;;;;6.20;6.00;;;;;;;;;;5008416;28;20527;-92
2022/07/10 11:48:28;;;;;;;6.43;6.23;;;;;;;;;;4990562;28;20417;-89
2022/07/10 11:50:57;;;;;;;5.97;5.87;;;;;;;;;;5006819;28;20800;-92
2022/07/10 11:53:32;;;;;;;6.07;5.97;;;;;;;;;;4985983;28;20449;-91
2022/07/10 11:55:58;;;;;;;5.93;5.73;;;;;;;;;;4981635;28;20436;-91
2022/07/10 11:58:24;;;;;;;4.80;4.50;;;;;;;;;;4987551;28;20429;-92
2022/07/10 12:01:02;;;;;;;4.27;4.17;;;;;;;;;;4992513;28;20441;-92
2022/07/10 12:03:28;;;;;;;4.10;4.00;;;;;;;;;;4983454;28;20519;-91
2022/07/10 12:05:54;;;;;;;3.50;3.27;;;;;;;;;;5001550;28;20514;-93
2022/07/10 12:08:23;;;;;;;3.30;3.30;;;;;;;;;;4977705;28;20466;-92
2022/07/10 12:10:49;;;;;;;2.63;2.53;;;;;;;;;;5000165;28;20443;-92
2022/07/10 12:13:15;;;;;;;2.70;2.37;;;;;;;;;;5020505;28;20472;-92
2022/07/10 12:15:43;;;;;;;2.20;2.20;;;;;;;;;;5012313;28;20437;-93
2022/07/10 12:18:15;;;;;;;2.90;2.80;;;;;;;;;;5005054;28;20437;-92
2022/07/10 12:20:45;;;;;;;2.93;2.67;;;;;;;;;;4982445;28;20906;-91
2022/07/10 12:23:14;;;;;;;2.10;2.10;;;;;;;;;;5009037;28;20428;-93
2022/07/10 12:25:41;;;;;;;2.10;1.90;;;;;;;;;;4992551;28;20469;-89
2022/07/10 12:28:07;;;;;;;2.80;2.60;;;;;;;;;;4995869;28;20449;-92
2022/07/10 12:30:38;;;;;;;1.83;1.80;;;;;;;;;;5003481;28;20447;-92
2022/07/10 12:33:16;;;;;;;3.50;2.30;;;;;;;;;;5003916;28;20424;-92
2022/07/10 12:35:49;;;;;;;2.53;2.43;;;;;;;;;;4986440;28;20433;-92
2022/07/10 12:38:27;;;;;;;2.53;2.43;;;;;;;;;;5006512;28;20436;-92
2022/07/10 12:41:35;;;;;;;2.30;2.20;;;;;;;;;;4967898;29;20418;-91
2022/07/10 12:44:14;;;;;;;2.10;2.10;;;;;;;;;;4931594;29;20473;-92
2022/07/10 12:46:40;;;;;;;2.20;2.20;;;;;;;;;;4937080;29;20435;-90
2022/07/10 12:49:18;;;;;;;2.70;2.00;;;;;;;;;;4936868;29;20450;-88
2022/07/10 12:51:57;;;;;;;2.77;2.63;;;;;;;;;;4967183;28;20459;-93
2022/07/10 12:55:15;;;;;;;;;;;;;;;;;;;;;
2022/07/10 12:57:52;;;;;;;3.47;2.90;;;;;;;;;;4955353;29;20455;-90
2022/07/10 13:00:42;;;;;;;3.50;2.60;;;;;;;;;;4973748;28;20450;-93
2022/07/10 13:03:19;;;;;;;2.37;2.23;;;;;;;;;;4970162;28;20442;-92
2022/07/10 13:05:45;;;;;;;2.40;2.40;;;;;;;;;;4986370;28;20509;-88
2022/07/10 13:08:15;;;;;;;2.30;2.30;;;;;;;;;;5027534;28;20465;-93
2022/07/10 13:10:42;;;;;;;2.50;2.40;;;;;;;;;;4989517;28;20503;-90
2022/07/10 13:13:08;;;;;;;2.60;2.57;;;;;;;;;;5003811;28;20439;-91
2022/07/10 13:15:40;;;;;;;2.63;2.53;;;;;;;;;;4987914;28;20512;-91
2022/07/10 13:18:26;;;;;;;2.20;2.10;;;;;;;;;;4982947;28;20513;-91
2022/07/10 13:20:58;;;;;;;2.87;2.77;;;;;;;;;;4968471;28;20518;-89
2022/07/10 13:23:26;;;;;;;2.37;2.27;;;;;;;;;;4990994;28;20499;-94
2022/07/10 13:28:28;;;;;;;2.70;2.60;;;;;;;;;;5039408;23;20277;-94
2022/07/10 13:30:54;;;;;;;2.67;2.57;;;;;;;;;;5259347;23;20506;-92
2022/07/10 13:33:27;;;;;;;2.03;1.93;;;;;;;;;;5015610;28;20495;-91
2022/07/10 13:35:56;;;;;;;3.37;3.17;;;;;;;;;;5006445;28;20456;-92
2022/07/10 13:38:32;;;;;;;;;;;;;;;;;;;;;
2022/07/10 13:40:58;;;;;;;3.23;3.10;;;;;;;;;;4971705;29;20457;-87
2022/07/10 13:43:33;;;;;;;3.00;3.00;;;;;;;;;;5009207;28;20496;-89
2022/07/10 13:46:03;;;;;;;3.53;3.23;;;;;;;;;;4998288;28;20508;-87
2022/07/10 13:48:35;;;;;;;4.93;4.63;;;;;;;;;;4924343;23;10002119;-90
2022/07/10 13:53:37;;;;;;;4.40;4.30;;;;;;;;;;5384917;23;20479;-88
2022/07/10 13:56:12;;;;;;;5.00;4.60;;;;;;;;;;4974092;28;20462;-91
2022/07/10 13:58:38;;;;;;;7.80;5.70;;;;;;;;;;4973068;28;20465;-93
2022/07/10 14:01:12;;;;;;;11.40;10.40;;;;;;;;;;4961888;28;20456;-94
2022/07/10 14:03:51;;;;;;;5.40;5.20;;;;;;;;;;4951918;29;20507;-93
2022/07/10 14:06:21;;;;;;;5.10;4.90;;;;;;;;;;4933144;29;20486;-93
2022/07/10 14:09:02;;;;;;;4.93;4.80;;;;;;;;;;4952348;29;20499;-88
2022/07/10 14:11:32;;;;;;;5.57;5.17;;;;;;;;;;4958577;29;20834;-93
2022/07/10 14:13:59;;;;;;;5.00;4.63;;;;;;;;;;4944666;29;20460;-93
2022/07/10 14:16:33;;;;;;;5.90;5.80;;;;;;;;;;4934392;29;20428;-92
2022/07/10 14:18:59;;;;;;;5.77;5.10;;;;;;;;;;4942928;29;20458;-92
2022/07/10 14:21:38;;;;;;;5.23;4.90;;;;;;;;;;4956525;28;20525;-91
2022/07/10 14:24:19;;;;;;;6.37;5.77;;;;;;;;;;4953651;29;20548;-87
2022/07/10 14:26:46;;;;;;;8.07;7.53;;;;;;;;;;4936477;29;20424;-91
2022/07/10 14:34:25;;;;;;;3.70;3.60;;;;;;;;;;4999927;23;20526;-94
2022/07/10 14:36:53;;;;;;;6.40;5.97;;;;;;;;;;4956306;28;20540;-93
2022/07/10 14:39:22;;;;;;;3.30;3.20;;;;;;;;;;4990627;28;20429;-93
2022/07/10 14:41:59;;;;;;;2.40;2.30;;;;;;;;;;4985953;28;20512;-95
2022/07/10 14:44:25;;;;;;;3.37;3.27;;;;;;;;;;4954785;28;20477;-91
2022/07/10 14:46:51;;;;;;;2.23;2.23;;;;;;;;;;4979486;28;20447;-91
2022/07/10 14:49:17;;;;;;;3.03;2.93;;;;;;;;;;4965541;28;20438;-93
2022/07/10 14:51:54;;;;;;;3.40;3.17;;;;;;;;;;4976551;28;20433;-92
2022/07/10 14:54:40;;;;;;;2.93;2.83;;;;;;;;;;4972382;28;20437;-94
2022/07/10 14:59:42;;;;;;;2.80;2.40;;;;;;;;;;5000006;23;20583;-92
2022/07/10 15:02:08;;;;;;;2.43;2.23;;;;;;;;;;5011490;28;20448;-93
2022/07/10 15:07:22;;;;;;;;;;;;;;;;;;;;;
2022/07/10 15:09:54;;;;;;;3.83;3.50;;;;;;;;;;4945563;29;20469;-92
2022/07/10 15:12:20;;;;;;;2.40;2.23;;;;;;;;;;4989238;23;20471;-93
2022/07/10 15:15:08;;;;;;;2.40;2.30;;;;;;;;;;4948855;29;20431;-93
2022/07/10 15:17:48;;;;;;;1.93;1.90;;;;;;;;;;4968942;28;20442;-89
2022/07/10 15:23:29;;;;;;;;;;;;;;;;;;;;;
2022/07/10 15:25:56;;;;;;;2.50;2.40;;;;;;;;;;4964861;28;20496;-88
2022/07/10 15:28:22;;;;;;;4.53;2.30;;;;;;;;;;4971400;28;21018;-87
2022/07/10 15:30:48;;;;;;;2.77;2.60;;;;;;;;;;4989003;28;20540;-87
2022/07/10 15:33:14;;;;;;;2.40;2.30;;;;;;;;;;4974571;28;20954;-88
2022/07/10 15:35:42;;;;;;;2.23;2.13;;;;;;;;;;4982097;28;20488;-86
2022/07/10 15:38:08;;;;;;;2.27;2.17;;;;;;;;;;4971473;28;20421;-87